Time;durP1;ratioP1;P1;durP2;ratioP2;P2;SDS_P1;SDS_P2;PMS_P1;PMS_P2;Temp;Humidity;BMP_temperature;BMP_pressure;BME280_temperature;BME280_humidity;BME280_pressure;Samples;Min_cycle;Max_cycle;Signal;HPM_P1;HPM_P2
2022/11/26 00:01:49;;;;;;;13.50;7.27;;;;;;;;;;10595219;27;20072;-75
2022/11/26 00:06:49;;;;;;;11.52;6.28;;;;;;;;;;10623231;27;20082;-72
2022/11/26 00:11:49;;;;;;;13.15;6.78;;;;;;;;;;10635496;27;20649;-76
2022/11/26 00:16:50;;;;;;;12.43;6.65;;;;;;;;;;10641698;27;20554;-76
2022/11/26 00:21:51;;;;;;;13.60;6.70;;;;;;;;;;10666393;27;20509;-75
2022/11/26 00:26:52;;;;;;;13.85;6.60;;;;;;;;;;10612622;27;20031;-76
2022/11/26 00:31:53;;;;;;;9.73;6.15;;;;;;;;;;10555895;27;20019;-75
2022/11/26 00:36:53;;;;;;;13.27;6.47;;;;;;;;;;10646388;27;20458;-75
2022/11/26 00:41:53;;;;;;;16.07;7.13;;;;;;;;;;10646499;27;20383;-74
2022/11/26 00:46:53;;;;;;;14.48;7.22;;;;;;;;;;10646635;27;20284;-76
2022/11/26 00:51:54;;;;;;;13.07;6.88;;;;;;;;;;10646472;27;20023;-74
2022/11/26 00:56:54;;;;;;;14.70;6.90;;;;;;;;;;10664753;27;20018;-75
2022/11/26 01:01:54;;;;;;;13.68;6.75;;;;;;;;;;10632468;27;20033;-75
2022/11/26 01:06:55;;;;;;;16.35;6.82;;;;;;;;;;10603122;27;20358;-76
2022/11/26 01:11:55;;;;;;;12.20;6.05;;;;;;;;;;10601708;27;20016;-75
2022/11/26 01:16:55;;;;;;;16.48;6.55;;;;;;;;;;10602484;27;20023;-75
2022/11/26 01:21:56;;;;;;;16.02;6.78;;;;;;;;;;10620854;27;20557;-76
2022/11/26 01:26:56;;;;;;;16.20;7.20;;;;;;;;;;10644214;27;20023;-76
2022/11/26 01:31:56;;;;;;;21.13;8.82;;;;;;;;;;10633153;27;20047;-77
2022/11/26 01:36:57;;;;;;;20.08;9.30;;;;;;;;;;10627020;27;20029;-74
2022/11/26 01:41:57;;;;;;;18.05;7.60;;;;;;;;;;10643247;27;20035;-74
2022/11/26 01:46:58;;;;;;;12.40;7.03;;;;;;;;;;10662304;27;20026;-76
2022/11/26 01:52:11;;;;;;;15.20;8.50;;;;;;;;;;10617004;27;20261;-75
2022/11/26 01:57:16;;;;;;;16.63;8.18;;;;;;;;;;10558990;28;20100;-75
2022/11/26 02:02:16;;;;;;;18.58;8.23;;;;;;;;;;10615766;27;20023;-73
2022/11/26 02:07:16;;;;;;;16.67;7.90;;;;;;;;;;10608119;27;20102;-74
2022/11/26 02:12:17;;;;;;;21.38;10.07;;;;;;;;;;10601101;27;20110;-76
2022/11/26 02:17:36;;;;;;;19.03;9.83;;;;;;;;;;10616777;27;20026;-75
2022/11/26 02:22:49;;;;;;;15.93;10.30;;;;;;;;;;10662821;27;20050;-76
2022/11/26 02:27:58;;;;;;;18.75;8.27;;;;;;;;;;10644988;27;20494;-75
2022/11/26 02:33:23;;;;;;;15.65;8.00;;;;;;;;;;10645225;27;20015;-76
2022/11/26 02:38:24;;;;;;;15.13;8.98;;;;;;;;;;10640917;27;20023;-76
2022/11/26 02:43:25;;;;;;;18.63;8.30;;;;;;;;;;10660441;27;20509;-78
2022/11/26 02:48:30;;;;;;;23.10;9.20;;;;;;;;;;10641556;27;20035;-77
2022/11/26 02:53:32;;;;;;;16.65;7.70;;;;;;;;;;10646368;27;20022;-77
2022/11/26 02:58:33;;;;;;;18.33;8.82;;;;;;;;;;10642071;27;20039;-74
2022/11/26 03:03:34;;;;;;;17.23;8.63;;;;;;;;;;10659309;27;20034;-75
2022/11/26 03:08:35;;;;;;;21.17;9.88;;;;;;;;;;10640261;27;20026;-78
2022/11/26 03:13:35;;;;;;;19.55;8.82;;;;;;;;;;10640116;27;20026;-74
2022/11/26 03:18:36;;;;;;;17.10;8.85;;;;;;;;;;10658581;27;20027;-75
2022/11/26 03:23:37;;;;;;;17.58;9.55;;;;;;;;;;10614746;27;20115;-75
2022/11/26 03:28:37;;;;;;;17.58;9.35;;;;;;;;;;10615929;27;20027;-74
2022/11/26 03:33:37;;;;;;;25.42;9.65;;;;;;;;;;10579827;27;20027;-73
2022/11/26 03:38:37;;;;;;;27.85;9.80;;;;;;;;;;10598031;27;20023;-76
2022/11/26 03:43:38;;;;;;;21.90;9.40;;;;;;;;;;10597258;27;20023;-76
2022/11/26 03:48:38;;;;;;;19.65;9.85;;;;;;;;;;10596725;27;20035;-75
2022/11/26 03:53:38;;;;;;;18.75;9.57;;;;;;;;;;10597250;27;20019;-75
2022/11/26 03:58:38;;;;;;;20.33;9.53;;;;;;;;;;10597723;27;20027;-75
2022/11/26 04:03:39;;;;;;;20.48;10.10;;;;;;;;;;10615664;27;20540;-74
2022/11/26 04:08:39;;;;;;;17.60;9.30;;;;;;;;;;10560750;28;20514;-75
2022/11/26 04:13:40;;;;;;;18.98;10.23;;;;;;;;;;10593849;28;20015;-75
2022/11/26 04:18:40;;;;;;;17.00;9.50;;;;;;;;;;10614336;28;20081;-75
2022/11/26 04:23:40;;;;;;;20.73;9.95;;;;;;;;;;10595862;28;20098;-75
2022/11/26 04:28:40;;;;;;;24.73;13.63;;;;;;;;;;10595355;28;20027;-74
2022/11/26 04:33:41;;;;;;;25.88;12.45;;;;;;;;;;10577650;28;20030;-74
2022/11/26 04:38:41;;;;;;;23.57;12.00;;;;;;;;;;10595655;28;20039;-74
2022/11/26 04:43:41;;;;;;;31.52;14.52;;;;;;;;;;10569932;28;20036;-76
2022/11/26 04:48:41;;;;;;;33.28;13.88;;;;;;;;;;10561647;28;20030;-74
2022/11/26 04:53:42;;;;;;;28.33;12.70;;;;;;;;;;10577431;28;20024;-75
2022/11/26 04:58:42;;;;;;;24.27;12.95;;;;;;;;;;10552815;28;20024;-77
2022/11/26 05:03:42;;;;;;;29.92;13.15;;;;;;;;;;10573743;28;20030;-76
2022/11/26 05:08:42;;;;;;;22.85;12.38;;;;;;;;;;10568538;27;20027;-76
2022/11/26 05:13:43;;;;;;;27.00;13.37;;;;;;;;;;10602346;27;20019;-75
2022/11/26 05:18:43;;;;;;;31.38;13.20;;;;;;;;;;10621030;27;20099;-76
2022/11/26 05:23:43;;;;;;;29.58;14.50;;;;;;;;;;10601617;27;20094;-76
2022/11/26 05:28:43;;;;;;;31.70;14.02;;;;;;;;;;10602086;27;20042;-75
2022/11/26 05:33:45;;;;;;;25.63;12.70;;;;;;;;;;10601611;27;20042;-76
2022/11/26 05:38:46;;;;;;;35.63;13.95;;;;;;;;;;10601702;27;20020;-74
2022/11/26 05:43:46;;;;;;;33.15;15.55;;;;;;;;;;10577852;27;20596;-76
2022/11/26 05:48:46;;;;;;;27.70;15.40;;;;;;;;;;10600022;27;20015;-75
2022/11/26 05:53:48;;;;;;;26.25;13.65;;;;;;;;;;10600906;27;20039;-73
2022/11/26 05:58:49;;;;;;;28.30;14.40;;;;;;;;;;10601239;27;20815;-73
2022/11/26 06:03:49;;;;;;;30.92;13.57;;;;;;;;;;10606804;27;20019;-74
2022/11/26 06:08:49;;;;;;;37.40;14.17;;;;;;;;;;10611893;27;20042;-72
2022/11/26 06:13:50;;;;;;;32.55;12.15;;;;;;;;;;10602232;27;20322;-75
2022/11/26 06:18:50;;;;;;;29.88;13.00;;;;;;;;;;10618329;27;20027;-73
2022/11/26 06:23:50;;;;;;;22.80;11.57;;;;;;;;;;10599565;27;20081;-75
2022/11/26 06:28:52;;;;;;;29.70;12.15;;;;;;;;;;10594691;27;20169;-73
2022/11/26 06:33:55;;;;;;;23.13;11.48;;;;;;;;;;10556922;28;20073;-73
2022/11/26 06:38:55;;;;;;;24.67;11.20;;;;;;;;;;10594957;27;20086;-76
2022/11/26 06:43:57;;;;;;;22.30;10.82;;;;;;;;;;10599109;27;20035;-78
2022/11/26 06:49:01;;;;;;;24.92;10.57;;;;;;;;;;10597215;27;20045;-79
2022/11/26 06:54:01;;;;;;;22.85;11.52;;;;;;;;;;10598101;27;20034;-78
2022/11/26 06:59:02;;;;;;;22.35;11.60;;;;;;;;;;10597116;27;20490;-79
2022/11/26 07:04:02;;;;;;;21.57;10.60;;;;;;;;;;10576783;27;20026;-78
2022/11/26 07:09:06;;;;;;;22.15;11.63;;;;;;;;;;10598332;27;20134;-81
2022/11/26 07:14:06;;;;;;;23.25;11.73;;;;;;;;;;10580753;27;20033;-75
2022/11/26 07:19:11;;;;;;;24.60;12.18;;;;;;;;;;10598237;27;20015;-78
2022/11/26 07:24:11;;;;;;;29.13;13.63;;;;;;;;;;10596264;27;20433;-78
2022/11/26 07:29:11;;;;;;;27.23;13.70;;;;;;;;;;10599639;27;20046;-78
2022/11/26 07:34:11;;;;;;;28.33;12.60;;;;;;;;;;10596259;27;20022;-76
2022/11/26 07:39:12;;;;;;;31.05;13.63;;;;;;;;;;10614896;27;20117;-79
2022/11/26 07:44:13;;;;;;;31.02;15.15;;;;;;;;;;10596149;27;20023;-74
2022/11/26 07:49:13;;;;;;;22.58;12.02;;;;;;;;;;10596473;27;20026;-79
2022/11/26 07:54:13;;;;;;;26.75;12.15;;;;;;;;;;10595993;27;20058;-79
2022/11/26 07:59:13;;;;;;;23.17;12.10;;;;;;;;;;10593706;27;20469;-77
2022/11/26 08:04:14;;;;;;;23.20;11.67;;;;;;;;;;10591980;27;20482;-77
2022/11/26 08:09:14;;;;;;;33.90;12.52;;;;;;;;;;10602340;27;20040;-75
2022/11/26 08:14:14;;;;;;;24.20;11.93;;;;;;;;;;10601289;28;20478;-79
2022/11/26 08:19:14;;;;;;;27.75;13.73;;;;;;;;;;10596062;28;20509;-75
2022/11/26 08:24:16;;;;;;;26.83;14.45;;;;;;;;;;10595472;28;20133;-77
2022/11/26 08:29:16;;;;;;;28.48;14.02;;;;;;;;;;10612897;28;20027;-78
2022/11/26 08:34:17;;;;;;;25.42;13.82;;;;;;;;;;10573351;28;20482;-76
2022/11/26 08:39:17;;;;;;;21.63;11.27;;;;;;;;;;10580047;27;20032;-76
2022/11/26 08:44:18;;;;;;;27.10;13.68;;;;;;;;;;10622696;27;20027;-76
2022/11/26 08:49:19;;;;;;;33.80;14.95;;;;;;;;;;10582016;27;20038;-76
2022/11/26 08:54:21;;;;;;;28.33;14.40;;;;;;;;;;10626500;27;20399;-79
2022/11/26 08:59:23;;;;;;;28.08;14.85;;;;;;;;;;10575281;27;20059;-76
2022/11/26 09:04:23;;;;;;;21.77;12.82;;;;;;;;;;10568616;27;20027;-73
2022/11/26 09:09:23;;;;;;;27.50;13.43;;;;;;;;;;10572214;27;20020;-75
2022/11/26 09:14:25;;;;;;;31.05;15.38;;;;;;;;;;10573610;27;20015;-75
2022/11/26 09:19:26;;;;;;;27.67;14.35;;;;;;;;;;10561997;27;20018;-74
2022/11/26 09:24:27;;;;;;;27.17;14.35;;;;;;;;;;10597832;27;20460;-74
2022/11/26 09:29:27;;;;;;;25.50;15.13;;;;;;;;;;10571847;27;20021;-75
2022/11/26 09:34:28;;;;;;;24.27;12.80;;;;;;;;;;10585275;27;20020;-74
2022/11/26 09:39:28;;;;;;;25.67;11.15;;;;;;;;;;10579418;27;20106;-75
2022/11/26 09:44:44;;;;;;;20.38;11.55;;;;;;;;;;10585510;27;20022;-78
2022/11/26 09:50:03;;;;;;;25.15;13.20;;;;;;;;;;10597457;27;20473;-77
2022/11/26 09:55:10;;;;;;;18.80;11.07;;;;;;;;;;10576966;27;21821;-77
2022/11/26 10:00:35;;;;;;;23.10;11.80;;;;;;;;;;10576733;27;20114;-77
2022/11/26 10:05:39;;;;;;;21.38;10.48;;;;;;;;;;10568262;27;20528;-73
2022/11/26 10:10:49;;;;;;;21.00;11.95;;;;;;;;;;10578797;27;20046;-77
2022/11/26 10:15:49;;;;;;;14.25;9.35;;;;;;;;;;10580630;27;20029;-75
2022/11/26 10:20:49;;;;;;;17.70;9.95;;;;;;;;;;10582319;27;20015;-77
2022/11/26 10:25:53;;;;;;;15.87;10.13;;;;;;;;;;10561469;27;20043;-77
2022/11/26 10:30:58;;;;;;;18.20;10.68;;;;;;;;;;10585586;27;20032;-75
2022/11/26 10:35:58;;;;;;;16.17;10.13;;;;;;;;;;10600895;27;20020;-75
2022/11/26 10:40:58;;;;;;;20.17;11.65;;;;;;;;;;10595126;27;20342;-75
2022/11/26 10:45:59;;;;;;;19.90;11.30;;;;;;;;;;10565673;27;20463;-77
2022/11/26 10:51:08;;;;;;;19.48;12.55;;;;;;;;;;10575930;27;20493;-75
2022/11/26 10:56:15;;;;;;;19.02;11.02;;;;;;;;;;10567737;27;20028;-78
2022/11/26 11:01:15;;;;;;;28.17;12.73;;;;;;;;;;10569845;27;20459;-77
2022/11/26 11:06:19;;;;;;;20.30;11.05;;;;;;;;;;10550754;27;20036;-77
2022/11/26 11:11:24;;;;;;;17.65;10.48;;;;;;;;;;10572339;27;20488;-77
2022/11/26 11:16:26;;;;;;;16.60;10.48;;;;;;;;;;10567203;27;20038;-78
2022/11/26 11:21:33;;;;;;;19.70;10.20;;;;;;;;;;10582364;27;20061;-79
2022/11/26 11:26:34;;;;;;;;;;;;;;;;;;10558013;27;20038;-78
2022/11/26 11:31:45;;;;;;;14.18;9.45;;;;;;;;;;10570236;27;20014;-77
2022/11/26 11:37:02;;;;;;;15.80;9.80;;;;;;;;;;10560228;27;20027;-74
2022/11/26 11:42:04;;;;;;;15.23;8.90;;;;;;;;;;10536251;28;20028;-76
2022/11/26 11:47:22;;;;;;;19.98;9.68;;;;;;;;;;10537206;27;20734;-76
2022/11/26 11:52:29;;;;;;;23.63;12.38;;;;;;;;;;10537868;28;20468;-76
2022/11/26 11:57:45;;;;;;;29.93;16.03;;;;;;;;;;10540878;27;20027;-78
2022/11/26 12:02:58;;;;;;;27.00;14.10;;;;;;;;;;10546361;28;20027;-77
2022/11/26 12:08:05;;;;;;;25.83;14.57;;;;;;;;;;10528821;28;20043;-76
2022/11/26 12:13:06;;;;;;;26.23;12.60;;;;;;;;;;10547394;28;20024;-77
2022/11/26 12:18:12;;;;;;;26.40;13.18;;;;;;;;;;10563487;28;20019;-76
2022/11/26 12:23:28;;;;;;;32.70;16.75;;;;;;;;;;10563013;28;20143;-82
2022/11/26 12:28:39;;;;;;;34.28;16.88;;;;;;;;;;10615302;28;20035;-81
2022/11/26 12:33:47;;;;;;;34.17;16.92;;;;;;;;;;10582644;28;20027;-74
2022/11/26 12:39:01;;;;;;;33.42;15.48;;;;;;;;;;10592492;28;20545;-82
2022/11/26 12:44:11;;;;;;;28.52;16.10;;;;;;;;;;10553464;28;20067;-79
2022/11/26 12:49:11;;;;;;;29.73;15.88;;;;;;;;;;10552643;28;20031;-78
2022/11/26 12:54:23;;;;;;;30.73;15.13;;;;;;;;;;10535292;28;20016;-77
2022/11/26 12:59:43;;;;;;;30.50;15.25;;;;;;;;;;10564411;28;20015;-77
2022/11/26 13:04:43;;;;;;;31.35;16.40;;;;;;;;;;10589332;28;20031;-72
2022/11/26 13:10:07;;;;;;;24.53;11.77;;;;;;;;;;10564309;28;20015;-76
2022/11/26 13:15:10;;;;;;;19.23;10.35;;;;;;;;;;10553805;28;20270;-73
2022/11/26 13:20:29;;;;;;;19.25;11.45;;;;;;;;;;10563261;28;20035;-76
2022/11/26 13:25:43;;;;;;;17.67;9.90;;;;;;;;;;10613732;27;20107;-77
2022/11/26 13:30:51;;;;;;;22.35;9.38;;;;;;;;;;10619234;27;20024;-76
2022/11/26 13:36:07;;;;;;;16.23;8.67;;;;;;;;;;10634333;27;20167;-79
2022/11/26 13:41:21;;;;;;;16.23;8.65;;;;;;;;;;10644430;27;20022;-78
2022/11/26 13:46:23;;;;;;;17.67;9.70;;;;;;;;;;10663011;27;20038;-78
2022/11/26 13:51:33;;;;;;;20.25;10.18;;;;;;;;;;10564507;27;20051;-77
2022/11/26 13:56:35;;;;;;;21.80;10.57;;;;;;;;;;10641179;27;20463;-78
2022/11/26 14:01:39;;;;;;;16.90;9.60;;;;;;;;;;10627365;27;20410;-76
2022/11/26 14:06:58;;;;;;;22.05;10.75;;;;;;;;;;10613406;27;20062;-78
2022/11/26 14:11:58;;;;;;;29.52;12.10;;;;;;;;;;10643178;27;20515;-77
2022/11/26 14:17:01;;;;;;;21.73;12.40;;;;;;;;;;10662600;27;20019;-77
2022/11/26 14:22:02;;;;;;;24.73;10.75;;;;;;;;;;10636365;27;20047;-79
2022/11/26 14:27:02;;;;;;;24.98;10.88;;;;;;;;;;10599092;27;20430;-77
2022/11/26 14:32:07;;;;;;;22.50;11.55;;;;;;;;;;10599764;27;20019;-79
2022/11/26 14:37:12;;;;;;;24.80;11.90;;;;;;;;;;10602318;27;20024;-76
2022/11/26 14:42:16;;;;;;;24.30;12.32;;;;;;;;;;10593970;27;20031;-77
2022/11/26 14:47:21;;;;;;;25.23;13.00;;;;;;;;;;10598485;27;20102;-76
2022/11/26 14:52:34;;;;;;;28.65;13.13;;;;;;;;;;10595709;27;20028;-75
2022/11/26 14:57:42;;;;;;;36.13;16.65;;;;;;;;;;10589642;27;20390;-76
2022/11/26 15:02:46;;;;;;;33.45;15.20;;;;;;;;;;10598572;27;20533;-76
2022/11/26 15:07:56;;;;;;;42.45;17.50;;;;;;;;;;10597725;27;20038;-76
2022/11/26 15:12:59;;;;;;;44.05;21.35;;;;;;;;;;10615487;27;20114;-78
2022/11/26 15:18:04;;;;;;;47.03;21.63;;;;;;;;;;10598747;27;20026;-77
2022/11/26 15:23:10;;;;;;;42.05;20.52;;;;;;;;;;10616236;27;20505;-76
2022/11/26 15:28:18;;;;;;;39.65;19.23;;;;;;;;;;10579586;27;20067;-77
2022/11/26 15:33:19;;;;;;;45.90;22.17;;;;;;;;;;10608793;27;20026;-73
2022/11/26 15:38:20;;;;;;;47.50;22.33;;;;;;;;;;10624646;27;20496;-74
2022/11/26 15:43:27;;;;;;;50.78;23.70;;;;;;;;;;10639614;27;20022;-73
2022/11/26 15:48:30;;;;;;;50.22;23.77;;;;;;;;;;10597591;27;20034;-78
2022/11/26 15:53:34;;;;;;;49.97;20.95;;;;;;;;;;10637006;27;20015;-76
2022/11/26 15:58:39;;;;;;;34.65;18.92;;;;;;;;;;10639206;27;20469;-77
2022/11/26 16:03:50;;;;;;;44.63;20.48;;;;;;;;;;10628318;27;20083;-73
2022/11/26 16:09:08;;;;;;;56.17;23.83;;;;;;;;;;10622260;27;20119;-77
2022/11/26 16:14:22;;;;;;;56.20;24.77;;;;;;;;;;10637852;27;20437;-74
2022/11/26 16:19:26;;;;;;;65.45;31.23;;;;;;;;;;10635384;27;20355;-78
2022/11/26 16:24:41;;;;;;;57.83;26.70;;;;;;;;;;10637842;27;20041;-78
2022/11/26 16:29:41;;;;;;;48.33;24.90;;;;;;;;;;10630185;27;20011;-77
2022/11/26 16:34:42;;;;;;;58.83;23.25;;;;;;;;;;10629086;27;20034;-75
2022/11/26 16:39:42;;;;;;;60.20;22.30;;;;;;;;;;10617881;27;20023;-76
2022/11/26 16:44:43;;;;;;;46.03;21.58;;;;;;;;;;10632671;27;20027;-78
2022/11/26 16:49:43;;;;;;;52.80;21.70;;;;;;;;;;10651352;27;20033;-77
2022/11/26 16:54:44;;;;;;;45.83;21.98;;;;;;;;;;10636878;27;20023;-77
2022/11/26 16:59:50;;;;;;;63.78;22.13;;;;;;;;;;10627599;27;20027;-77
2022/11/26 17:04:50;;;;;;;52.08;22.88;;;;;;;;;;10584125;28;20435;-77
2022/11/26 17:09:52;;;;;;;58.47;20.93;;;;;;;;;;10622723;27;20022;-76
2022/11/26 17:14:52;;;;;;;45.67;19.85;;;;;;;;;;10607119;27;20404;-75
2022/11/26 17:19:52;;;;;;;55.70;23.33;;;;;;;;;;10586972;28;20019;-77
2022/11/26 17:24:53;;;;;;;47.78;20.65;;;;;;;;;;10573751;27;1209906;-77
2022/11/26 17:29:53;;;;;;;42.75;19.65;;;;;;;;;;10645332;27;20014;-77
2022/11/26 17:34:54;;;;;;;49.67;20.30;;;;;;;;;;10663955;27;20023;-76
2022/11/26 17:40:02;;;;;;;42.37;18.10;;;;;;;;;;10656235;27;20125;-72
2022/11/26 17:45:03;;;;;;;45.83;18.92;;;;;;;;;;10633828;27;20311;-73
2022/11/26 17:50:04;;;;;;;42.70;18.38;;;;;;;;;;10599267;27;20030;-72
2022/11/26 17:55:04;;;;;;;44.38;19.58;;;;;;;;;;10613434;27;20561;-76
2022/11/26 18:00:05;;;;;;;40.95;19.23;;;;;;;;;;10612952;27;20023;-76
2022/11/26 18:05:07;;;;;;;53.53;19.50;;;;;;;;;;10590544;27;20054;-74
2022/11/26 18:10:14;;;;;;;51.60;20.25;;;;;;;;;;10598815;27;20026;-78
2022/11/26 18:15:16;;;;;;;44.73;19.37;;;;;;;;;;10589193;27;20037;-76
2022/11/26 18:20:17;;;;;;;44.80;19.02;;;;;;;;;;10602170;27;20059;-77
2022/11/26 18:25:18;;;;;;;36.28;18.17;;;;;;;;;;10596709;27;20092;-79
2022/11/26 18:30:18;;;;;;;47.97;21.05;;;;;;;;;;10606839;27;20035;-78
2022/11/26 18:35:19;;;;;;;43.92;18.52;;;;;;;;;;10620470;27;20019;-76
2022/11/26 18:40:19;;;;;;;37.47;18.17;;;;;;;;;;10609443;27;20410;-77
2022/11/26 18:45:19;;;;;;;43.40;19.77;;;;;;;;;;10609549;27;20035;-76
2022/11/26 18:50:20;;;;;;;47.97;22.15;;;;;;;;;;10602083;27;20015;-77
2022/11/26 18:55:20;;;;;;;56.95;22.33;;;;;;;;;;10601818;27;20077;-76
2022/11/26 19:00:20;;;;;;;44.00;20.27;;;;;;;;;;10611661;27;20031;-76
2022/11/26 19:05:20;;;;;;;43.67;19.20;;;;;;;;;;10594335;27;20024;-76
2022/11/26 19:10:22;;;;;;;51.78;22.77;;;;;;;;;;10587549;27;20454;-75
2022/11/26 19:15:23;;;;;;;47.40;21.98;;;;;;;;;;10598021;27;20019;-74
2022/11/26 19:20:26;;;;;;;47.13;20.93;;;;;;;;;;10590474;27;20024;-77
2022/11/26 19:25:28;;;;;;;39.75;21.65;;;;;;;;;;10595382;27;20663;-76
2022/11/26 19:30:29;;;;;;;44.08;19.63;;;;;;;;;;10590645;27;20580;-77
2022/11/26 19:35:30;;;;;;;46.03;20.90;;;;;;;;;;10589280;27;20104;-77
2022/11/26 19:40:30;;;;;;;39.17;19.02;;;;;;;;;;10608850;27;20810;-77
2022/11/26 19:45:30;;;;;;;33.88;17.05;;;;;;;;;;10602768;27;20051;-73
2022/11/26 19:50:30;;;;;;;36.17;16.75;;;;;;;;;;10607988;27;20378;-77
2022/11/26 19:55:32;;;;;;;38.95;17.50;;;;;;;;;;10603414;27;20036;-76
2022/11/26 20:00:32;;;;;;;34.05;17.70;;;;;;;;;;10582031;27;20067;-76
2022/11/26 20:05:32;;;;;;;37.47;17.45;;;;;;;;;;10605448;27;20122;-76
2022/11/26 20:10:33;;;;;;;36.97;17.65;;;;;;;;;;10599810;27;20024;-76
2022/11/26 20:15:37;;;;;;;38.15;18.02;;;;;;;;;;10588973;27;20119;-75
2022/11/26 20:20:38;;;;;;;38.28;18.52;;;;;;;;;;10610187;27;20019;-78
2022/11/26 20:25:38;;;;;;;41.13;20.50;;;;;;;;;;10585320;27;20046;-76
2022/11/26 20:30:40;;;;;;;48.20;18.38;;;;;;;;;;10593600;27;20020;-83
2022/11/26 20:35:41;;;;;;;38.05;18.13;;;;;;;;;;10607265;27;20035;-77
2022/11/26 20:40:42;;;;;;;40.83;18.73;;;;;;;;;;10617409;27;20019;-78
2022/11/26 20:45:42;;;;;;;43.33;21.33;;;;;;;;;;10607601;27;20745;-77
2022/11/26 20:50:42;;;;;;;39.90;17.10;;;;;;;;;;10595589;27;20261;-76
2022/11/26 20:55:50;;;;;;;40.35;19.67;;;;;;;;;;10591393;27;20952;-74
2022/11/26 21:00:52;;;;;;;41.15;18.52;;;;;;;;;;10596219;27;20023;-75
2022/11/26 21:05:53;;;;;;;32.70;19.55;;;;;;;;;;10600358;27;20030;-77
2022/11/26 21:10:53;;;;;;;39.85;21.77;;;;;;;;;;10579029;27;20038;-76
2022/11/26 21:15:55;;;;;;;39.90;19.87;;;;;;;;;;10596838;27;20122;-80
2022/11/26 21:20:55;;;;;;;49.92;21.40;;;;;;;;;;10602402;27;20447;-77
2022/11/26 21:25:55;;;;;;;45.58;20.90;;;;;;;;;;10596865;27;20126;-76
2022/11/26 21:30:57;;;;;;;47.25;23.63;;;;;;;;;;10603509;27;20046;-76
2022/11/26 21:36:07;;;;;;;43.97;21.73;;;;;;;;;;10605067;27;20276;-77
2022/11/26 21:41:11;;;;;;;44.53;20.77;;;;;;;;;;10604348;27;20629;-74
2022/11/26 21:46:17;;;;;;;45.03;23.48;;;;;;;;;;10638386;27;20035;-77
2022/11/26 21:51:17;;;;;;;55.55;22.88;;;;;;;;;;10608782;27;20398;-75
2022/11/26 21:56:19;;;;;;;45.63;22.42;;;;;;;;;;10616355;27;20019;-73
2022/11/26 22:01:26;;;;;;;44.47;21.10;;;;;;;;;;10614353;27;20025;-76
2022/11/26 22:06:26;;;;;;;45.23;19.33;;;;;;;;;;10616421;27;20465;-77
2022/11/26 22:11:28;;;;;;;41.43;20.37;;;;;;;;;;10605281;27;20007;-76
2022/11/26 22:16:29;;;;;;;49.90;21.33;;;;;;;;;;10626465;27;20101;-80
2022/11/26 22:21:33;;;;;;;46.65;22.30;;;;;;;;;;10615068;27;20015;-77
2022/11/26 22:26:34;;;;;;;50.15;21.30;;;;;;;;;;10602018;27;20480;-78
2022/11/26 22:31:35;;;;;;;47.20;20.42;;;;;;;;;;10589130;27;20048;-77
2022/11/26 22:36:36;;;;;;;46.92;20.65;;;;;;;;;;10585767;27;20031;-77
2022/11/26 22:41:42;;;;;;;37.33;18.48;;;;;;;;;;10584786;27;20042;-75
2022/11/26 22:46:42;;;;;;;41.08;21.95;;;;;;;;;;10578859;27;20399;-76
2022/11/26 22:51:46;;;;;;;40.90;19.75;;;;;;;;;;10590163;27;20471;-77
2022/11/26 22:56:46;;;;;;;42.33;20.00;;;;;;;;;;10583143;27;20068;-77
2022/11/26 23:01:46;;;;;;;42.15;21.27;;;;;;;;;;10578137;27;20107;-77
2022/11/26 23:06:47;;;;;;;43.67;21.93;;;;;;;;;;10571851;27;20043;-77
2022/11/26 23:11:47;;;;;;;46.75;22.75;;;;;;;;;;10574195;27;20024;-77
2022/11/26 23:16:47;;;;;;;49.97;21.73;;;;;;;;;;10586563;27;20506;-78
2022/11/26 23:21:48;;;;;;;48.95;22.30;;;;;;;;;;10592251;27;20111;-77
2022/11/26 23:26:48;;;;;;;47.70;23.00;;;;;;;;;;10574610;27;20039;-77
2022/11/26 23:31:49;;;;;;;50.70;28.08;;;;;;;;;;10608591;27;20015;-75
2022/11/26 23:36:49;;;;;;;60.53;25.60;;;;;;;;;;10618166;27;20165;-75
2022/11/26 23:41:50;;;;;;;44.95;22.65;;;;;;;;;;10616674;27;20050;-75
2022/11/26 23:46:50;;;;;;;48.78;22.13;;;;;;;;;;10616130;27;20037;-71
2022/11/26 23:51:50;;;;;;;44.42;23.55;;;;;;;;;;10618508;27;20079;-71
2022/11/26 23:56:52;;;;;;;48.13;22.83;;;;;;;;;;10613072;27;20043;-76
